Time;durP1;ratioP1;P1;durP2;ratioP2;P2;SDS_P1;SDS_P2;PMS_P1;PMS_P2;Temp;Humidity;BMP_temperature;BMP_pressure;BME280_temperature;BME280_humidity;BME280_pressure;Samples;Min_cycle;Max_cycle;Signal;HPM_P1;HPM_P2
2022/04/20 00:00:35;;;;;;;2.00;1.85;;;10.60;99.90;;;;;;4195267;28;20098;-47
2022/04/20 00:02:39;;;;;;;2.17;1.98;;;10.60;99.90;;;;;;4195811;28;20431;-48
2022/04/20 00:04:41;;;;;;;2.88;2.67;;;10.60;99.90;;;;;;4193979;28;20098;-49
2022/04/20 00:06:44;;;;;;;2.05;1.85;;;10.60;99.90;;;;;;4195604;28;20040;-49
2022/04/20 00:08:46;;;;;;;2.00;1.98;;;10.60;99.90;;;;;;4213339;28;20049;-48
2022/04/20 00:10:49;;;;;;;3.67;2.20;;;10.60;99.90;;;;;;4195298;28;20048;-49
2022/04/20 00:12:51;;;;;;;1.80;1.75;;;10.60;99.90;;;;;;4210639;28;20042;-50
2022/04/20 00:14:53;;;;;;;2.40;1.92;;;10.60;99.90;;;;;;4195188;28;20374;-47
2022/04/20 00:16:58;;;;;;;2.47;2.28;;;10.60;99.90;;;;;;4195352;28;20059;-47
2022/04/20 00:19:00;;;;;;;2.50;2.15;;;10.50;99.90;;;;;;4199705;28;20033;-48
2022/04/20 00:21:02;;;;;;;2.70;2.55;;;10.50;99.90;;;;;;4205692;28;20074;-48
2022/04/20 00:23:04;;;;;;;3.80;1.55;;;10.60;99.90;;;;;;4203672;28;20116;-49
2022/04/20 00:25:07;;;;;;;3.17;1.63;;;10.50;99.90;;;;;;4194994;28;20090;-48
2022/04/20 00:27:09;;;;;;;;;;;10.50;99.90;;;;;;4195565;28;20415;-49
2022/04/20 00:29:11;;;;;;;4.18;2.40;;;10.50;99.90;;;;;;4194966;28;19930;-50
2022/04/20 00:31:13;;;;;;;2.72;2.55;;;10.50;99.90;;;;;;4193942;28;20094;-50
2022/04/20 00:33:15;;;;;;;10.98;2.20;;;10.50;99.90;;;;;;4195082;28;20095;-48
2022/04/20 00:35:17;;;;;;;2.58;1.98;;;10.40;99.90;;;;;;4194840;28;20122;-50
2022/04/20 00:37:19;;;;;;;2.88;1.80;;;10.40;99.90;;;;;;4195186;28;20707;-50
2022/04/20 00:39:22;;;;;;;5.03;1.58;;;10.40;99.90;;;;;;4194890;28;20037;-48
2022/04/20 00:41:24;;;;;;;5.45;1.88;;;10.30;99.90;;;;;;4193929;28;20411;-49
2022/04/20 00:43:28;;;;;;;2.25;2.03;;;10.30;99.90;;;;;;4202208;28;20043;-49
2022/04/20 00:45:31;;;;;;;4.50;1.90;;;10.30;99.90;;;;;;4218684;28;20408;-48
2022/04/20 00:47:36;;;;;;;1.95;1.80;;;10.30;99.90;;;;;;4205590;28;20486;-49
2022/04/20 00:49:40;;;;;;;4.22;2.10;;;10.20;99.90;;;;;;4197623;28;20036;-48
2022/04/20 00:52:00;;;;;;;2.17;1.70;;;10.30;99.90;;;;;;4194920;28;20032;-49
2022/04/20 00:54:02;;;;;;;1.65;1.45;;;10.30;99.90;;;;;;4194865;28;20155;-50
2022/04/20 00:56:04;;;;;;;;;;;10.20;99.90;;;;;;4194834;28;20036;-50
2022/04/20 00:58:06;;;;;;;3.13;1.90;;;10.20;99.90;;;;;;4194035;28;19974;-50
2022/04/20 01:00:09;;;;;;;1.85;1.50;;;10.20;99.90;;;;;;4194588;28;20064;-47
2022/04/20 01:02:12;;;;;;;4.68;1.83;;;10.10;99.90;;;;;;4194883;28;20699;-47
2022/04/20 01:04:14;;;;;;;3.20;2.50;;;10.10;99.90;;;;;;4194727;28;20117;-48
2022/04/20 01:06:16;;;;;;;2.15;1.52;;;10.10;99.90;;;;;;4194449;28;20049;-50
2022/04/20 01:08:18;;;;;;;2.00;1.90;;;10.10;99.90;;;;;;4209545;28;20045;-50
2022/04/20 01:10:23;;;;;;;2.80;1.77;;;10.10;99.90;;;;;;4194415;28;20411;-48
2022/04/20 01:12:25;;;;;;;2.08;1.98;;;10.00;99.90;;;;;;4206652;28;20548;-49
2022/04/20 01:14:28;;;;;;;1.95;1.92;;;9.90;99.90;;;;;;4194700;28;20147;-50
2022/04/20 01:16:30;;;;;;;;;;;9.90;99.90;;;;;;4195197;28;20636;-49
2022/04/20 01:18:32;;;;;;;1.70;1.60;;;9.90;99.90;;;;;;4195776;28;20019;-50
2022/04/20 01:20:34;;;;;;;2.13;2.03;;;9.90;99.90;;;;;;4194252;28;20458;-48
2022/04/20 01:22:36;;;;;;;1.65;1.55;;;9.90;99.90;;;;;;4194442;28;20105;-48
2022/04/20 01:24:39;;;;;;;3.85;3.03;;;9.80;99.90;;;;;;4194324;28;20106;-48
2022/04/20 01:26:42;;;;;;;3.25;1.83;;;9.80;99.90;;;;;;4194147;28;20411;-51
2022/04/20 01:28:45;;;;;;;2.55;2.45;;;9.70;99.90;;;;;;4193887;28;20052;-49
2022/04/20 01:30:47;;;;;;;2.83;2.47;;;9.70;99.90;;;;;;4194403;28;20058;-51
2022/04/20 01:32:51;;;;;;;1.83;1.60;;;9.70;99.90;;;;;;4194213;28;20466;-50
2022/04/20 01:34:53;;;;;;;5.90;2.03;;;9.60;99.90;;;;;;4194052;28;20062;-51
2022/04/20 01:36:55;;;;;;;3.63;3.03;;;9.60;99.90;;;;;;4193929;28;20036;-47
2022/04/20 01:39:00;;;;;;;3.55;1.92;;;9.60;99.90;;;;;;4194238;28;20044;-50
2022/04/20 01:41:02;;;;;;;3.05;2.75;;;9.50;99.90;;;;;;4193900;28;20052;-48
2022/04/20 01:43:04;;;;;;;3.10;2.53;;;9.60;99.90;;;;;;4197415;28;20325;-49
2022/04/20 01:45:08;;;;;;;2.65;2.33;;;9.50;99.90;;;;;;4207183;28;20438;-47
2022/04/20 01:47:10;;;;;;;2.53;2.33;;;9.50;99.90;;;;;;4193767;28;20099;-50
2022/04/20 01:49:12;;;;;;;3.65;1.98;;;9.40;99.90;;;;;;4194022;28;20500;-50
2022/04/20 01:53:46;;;;;;;2.70;2.05;;;9.30;99.90;;;;;;4206307;28;20083;-51
2022/04/20 01:55:48;;;;;;;2.85;1.95;;;9.30;99.90;;;;;;4193788;28;20043;-47
2022/04/20 01:57:52;;;;;;;2.47;2.20;;;9.20;99.90;;;;;;4195703;28;20036;-51
2022/04/20 01:59:54;;;;;;;5.00;2.35;;;9.30;99.90;;;;;;4200239;28;20116;-48
2022/04/20 02:04:18;;;;;;;2.88;1.85;;;9.30;99.90;;;;;;4193881;28;20040;-51
2022/04/20 02:06:20;;;;;;;4.30;2.22;;;9.30;99.90;;;;;;4193791;28;20044;-51
2022/04/20 02:08:22;;;;;;;2.97;2.13;;;9.20;99.90;;;;;;4205043;28;20053;-50
2022/04/20 02:10:24;;;;;;;5.38;2.50;;;9.20;99.90;;;;;;4193384;28;20048;-47
2022/04/20 02:12:29;;;;;;;3.15;2.05;;;9.20;99.90;;;;;;4205377;28;20044;-49
2022/04/20 02:14:33;;;;;;;3.50;2.15;;;9.20;99.90;;;;;;4193691;28;20443;-51
2022/04/20 02:16:36;;;;;;;3.35;2.58;;;9.20;99.90;;;;;;4193708;28;20040;-49
2022/04/20 02:18:39;;;;;;;2.95;2.72;;;9.20;99.90;;;;;;4194475;28;20036;-51
2022/04/20 02:20:41;;;;;;;3.22;3.13;;;9.20;99.90;;;;;;4193411;28;20652;-50
2022/04/20 02:22:43;;;;;;;5.20;2.42;;;9.20;99.90;;;;;;4193289;28;20044;-50
2022/04/20 02:24:45;;;;;;;2.08;1.85;;;9.10;99.90;;;;;;4193795;28;20089;-50
2022/04/20 02:26:47;;;;;;;4.00;2.80;;;9.10;99.90;;;;;;4193624;28;20581;-50
2022/04/20 02:28:52;;;;;;;2.67;2.47;;;9.10;99.90;;;;;;4191678;28;20459;-50
2022/04/20 02:30:54;;;;;;;2.50;2.40;;;9.10;99.90;;;;;;4193365;28;20086;-48
2022/04/20 02:32:56;;;;;;;3.13;2.90;;;9.00;99.90;;;;;;4193233;28;20518;-49
2022/04/20 02:34:58;;;;;;;3.17;2.90;;;8.90;99.90;;;;;;4193353;28;20040;-48
2022/04/20 02:37:03;;;;;;;2.58;2.38;;;8.90;99.90;;;;;;4193450;28;20041;-51
2022/04/20 02:39:05;;;;;;;2.63;2.47;;;8.80;99.90;;;;;;4193392;28;20043;-49
2022/04/20 02:41:08;;;;;;;4.10;2.28;;;8.80;99.90;;;;;;4206848;28;20061;-49
2022/04/20 02:43:11;;;;;;;;;;;8.80;99.90;;;;;;4197130;28;20052;-47
2022/04/20 02:45:13;;;;;;;4.50;1.90;;;8.80;99.90;;;;;;4214970;28;20288;-50
2022/04/20 02:47:16;;;;;;;2.53;2.33;;;8.80;99.90;;;;;;4193092;28;20406;-50
2022/04/20 02:49:18;;;;;;;3.55;2.72;;;8.80;99.90;;;;;;4193299;28;20137;-47
2022/04/20 02:51:20;;;;;;;2.33;1.58;;;8.80;99.90;;;;;;4193504;28;20047;-50
2022/04/20 02:53:22;;;;;;;2.72;1.98;;;8.80;99.90;;;;;;4207058;28;20044;-52
2022/04/20 02:55:25;;;;;;;2.10;1.80;;;8.70;99.90;;;;;;4193208;28;20070;-50
2022/04/20 02:57:28;;;;;;;2.90;2.20;;;8.80;99.90;;;;;;4193166;28;20032;-48
2022/04/20 02:59:30;;;;;;;3.42;3.15;;;8.70;99.90;;;;;;4193304;28;20131;-51
2022/04/20 03:01:33;;;;;;;3.30;2.97;;;8.70;99.90;;;;;;4192812;28;20045;-47
2022/04/20 03:03:35;;;;;;;10.10;2.47;;;8.70;99.90;;;;;;4193381;28;21114;-47
2022/04/20 03:05:44;;;;;;;2.63;2.42;;;8.60;99.90;;;;;;4192907;28;20102;-51
2022/04/20 03:07:47;;;;;;;2.47;2.35;;;8.60;99.90;;;;;;4200994;28;20028;-48
2022/04/20 03:09:49;;;;;;;;;;;8.50;99.90;;;;;;4193659;28;20572;-50
2022/04/20 03:11:51;;;;;;;4.13;3.78;;;8.30;99.90;;;;;;4208510;28;19920;-49
2022/04/20 03:13:53;;;;;;;2.47;2.38;;;8.30;99.90;;;;;;4196166;28;20537;-49
2022/04/20 03:15:55;;;;;;;4.32;3.67;;;8.20;99.90;;;;;;4193284;28;20132;-48
2022/04/20 03:17:57;;;;;;;2.53;2.42;;;8.20;99.90;;;;;;4208261;28;20036;-49
2022/04/20 03:20:00;;;;;;;3.05;2.95;;;8.20;99.90;;;;;;4210000;28;20033;-49
2022/04/20 03:22:02;;;;;;;4.35;3.90;;;8.10;99.90;;;;;;4192829;28;20091;-47
2022/04/20 03:24:05;;;;;;;5.95;4.55;;;8.10;99.90;;;;;;4192991;28;20040;-49
2022/04/20 03:26:08;;;;;;;4.40;4.10;;;8.10;99.90;;;;;;4192987;28;20046;-47
2022/04/20 03:28:10;;;;;;;2.75;2.53;;;8.20;99.90;;;;;;4192983;28;20160;-49
2022/04/20 03:30:14;;;;;;;5.43;2.58;;;8.20;99.90;;;;;;4192971;28;20058;-49
2022/04/20 03:32:17;;;;;;;3.70;3.38;;;8.20;99.90;;;;;;4192940;28;20094;-48
2022/04/20 03:34:20;;;;;;;3.95;3.67;;;8.30;99.90;;;;;;4191439;28;20047;-50
2022/04/20 03:36:22;;;;;;;4.25;4.05;;;8.10;99.90;;;;;;4211338;28;20039;-47
2022/04/20 03:38:24;;;;;;;3.72;3.45;;;8.10;99.90;;;;;;4213153;28;20127;-48
2022/04/20 03:40:26;;;;;;;4.65;3.15;;;8.10;99.90;;;;;;4195939;28;20058;-50
2022/04/20 03:42:28;;;;;;;2.80;2.45;;;8.10;99.90;;;;;;4195900;28;20152;-47
2022/04/20 03:44:31;;;;;;;2.63;2.53;;;8.10;99.90;;;;;;4218137;28;20044;-49
2022/04/20 03:46:33;;;;;;;2.67;2.58;;;8.10;99.90;;;;;;4195795;28;20049;-48
2022/04/20 03:48:35;;;;;;;3.25;3.05;;;8.10;99.90;;;;;;4195639;28;20125;-51
2022/04/20 03:50:38;;;;;;;3.97;3.45;;;8.10;99.90;;;;;;4195776;28;20036;-48
2022/04/20 03:52:40;;;;;;;3.28;3.13;;;8.10;99.90;;;;;;4195728;28;20049;-50
2022/04/20 03:54:42;;;;;;;3.42;2.85;;;8.10;99.90;;;;;;4195773;28;20109;-47
2022/04/20 03:59:05;;;;;;;3.83;2.72;;;8.10;99.90;;;;;;4195562;28;20029;-47
2022/04/20 04:01:07;;;;;;;3.58;3.22;;;8.10;99.90;;;;;;4195508;28;20041;-50
2022/04/20 04:03:09;;;;;;;2.53;1.83;;;8.00;99.90;;;;;;4195425;28;20410;-48
2022/04/20 04:05:12;;;;;;;2.53;2.42;;;8.00;99.90;;;;;;4195558;28;20044;-47
2022/04/20 04:07:14;;;;;;;8.32;2.78;;;7.90;99.90;;;;;;4195582;28;20032;-50
2022/04/20 04:09:17;;;;;;;2.65;2.35;;;7.80;99.90;;;;;;4196692;28;20040;-49
2022/04/20 04:11:19;;;;;;;3.38;3.17;;;7.80;99.90;;;;;;4199101;28;20055;-49
2022/04/20 04:13:21;;;;;;;3.33;3.03;;;7.70;99.90;;;;;;4200130;28;20050;-48
2022/04/20 04:15:24;;;;;;;3.78;3.60;;;7.60;99.90;;;;;;4195093;28;20385;-49
2022/04/20 04:17:26;;;;;;;4.55;3.25;;;7.60;99.90;;;;;;4204578;28;20027;-50
2022/04/20 04:19:28;;;;;;;3.38;3.17;;;7.50;99.90;;;;;;4217814;28;20045;-49
2022/04/20 04:21:36;;;;;;;5.03;2.80;;;7.40;99.90;;;;;;4195104;28;20377;-47
2022/04/20 04:23:38;;;;;;;3.83;3.35;;;7.30;99.90;;;;;;4195380;28;20335;-48
2022/04/20 04:25:41;;;;;;;2.75;2.55;;;7.30;99.90;;;;;;4195264;28;20115;-47
2022/04/20 04:27:43;;;;;;;3.08;2.13;;;7.20;99.90;;;;;;4195211;28;20045;-49
2022/04/20 04:29:46;;;;;;;4.50;2.60;;;7.20;99.90;;;;;;4195011;28;20071;-47
2022/04/20 04:31:48;;;;;;;3.42;3.00;;;7.40;99.90;;;;;;4198968;28;20132;-50
2022/04/20 04:33:50;;;;;;;3.50;3.20;;;7.50;99.90;;;;;;4208562;28;20044;-49
2022/04/20 04:35:52;;;;;;;4.40;3.17;;;7.40;99.90;;;;;;4194669;28;20492;-48
2022/04/20 04:37:55;;;;;;;3.45;3.25;;;7.40;99.90;;;;;;4209781;28;20223;-48
2022/04/20 04:39:57;;;;;;;3.70;2.97;;;7.40;99.90;;;;;;4194877;28;20040;-47
2022/04/20 04:42:02;;;;;;;3.80;2.90;;;7.40;99.90;;;;;;4195598;28;20086;-47
2022/04/20 04:44:04;;;;;;;5.28;2.42;;;7.40;99.90;;;;;;4215407;28;20040;-48
2022/04/20 04:48:36;;;;;;;3.38;3.17;;;7.40;99.90;;;;;;4194638;28;20486;-50
2022/04/20 04:50:38;;;;;;;2.83;2.83;;;7.50;99.90;;;;;;4216495;28;20054;-49
2022/04/20 04:52:41;;;;;;;3.95;3.85;;;7.40;99.90;;;;;;4202800;28;20128;-49
2022/04/20 04:54:43;;;;;;;4.43;3.38;;;7.30;99.90;;;;;;4194889;28;20040;-47
2022/04/20 04:56:45;;;;;;;3.38;3.28;;;7.30;99.90;;;;;;4194521;28;20450;-50
2022/04/20 04:58:50;;;;;;;3.13;3.08;;;7.30;99.90;;;;;;4194318;28;20039;-50
2022/04/20 05:00:53;;;;;;;6.97;3.67;;;7.30;99.90;;;;;;4193220;28;20044;-50
2022/04/20 05:02:55;;;;;;;3.15;3.05;;;7.30;99.90;;;;;;4194578;28;20127;-49
2022/04/20 05:04:57;;;;;;;3.00;2.90;;;7.40;99.90;;;;;;4194344;28;20041;-48
2022/04/20 05:07:05;;;;;;;2.78;2.67;;;7.50;99.90;;;;;;4194932;28;20135;-50
2022/04/20 05:09:07;;;;;;;3.42;3.30;;;7.60;99.90;;;;;;4196587;28;20110;-49
2022/04/20 05:11:09;;;;;;;5.63;4.28;;;7.60;99.90;;;;;;4196239;28;20365;-47
2022/04/20 05:13:11;;;;;;;3.80;3.47;;;7.50;99.90;;;;;;4199835;28;20036;-47
2022/04/20 05:15:14;;;;;;;4.30;3.15;;;7.60;99.90;;;;;;4194235;28;20044;-48
2022/04/20 05:17:16;;;;;;;3.53;3.38;;;7.60;99.90;;;;;;4196815;28;20487;-46
2022/04/20 05:19:18;;;;;;;3.25;3.15;;;7.60;99.90;;;;;;4194155;28;20043;-50
2022/04/20 05:21:21;;;;;;;4.22;4.03;;;7.60;99.90;;;;;;4194078;28;20099;-48
2022/04/20 05:23:23;;;;;;;3.40;3.20;;;7.60;99.90;;;;;;4194081;28;20127;-47
2022/04/20 05:25:25;;;;;;;2.97;2.75;;;7.70;99.90;;;;;;4193839;28;20058;-50
2022/04/20 05:27:28;;;;;;;2.97;2.72;;;7.70;99.90;;;;;;4195318;28;20094;-48
2022/04/20 05:29:30;;;;;;;6.03;4.07;;;7.60;99.90;;;;;;4195153;28;20101;-50
2022/04/20 05:31:32;;;;;;;3.67;3.33;;;7.70;99.90;;;;;;4196059;28;20496;-50
2022/04/20 05:33:34;;;;;;;2.72;2.53;;;7.80;99.90;;;;;;4193637;28;20041;-48
2022/04/20 05:35:36;;;;;;;4.07;3.15;;;7.80;99.90;;;;;;4194519;28;20044;-49
2022/04/20 05:42:22;;;;;;;3.15;3.05;;;7.90;99.90;;;;;;4194059;28;20047;-50
2022/04/20 05:44:24;;;;;;;3.53;3.22;;;8.00;99.90;;;;;;4209276;28;20131;-49
2022/04/20 05:46:27;;;;;;;8.90;3.47;;;8.00;99.90;;;;;;4193787;28;20041;-50
2022/04/20 05:48:29;;;;;;;4.15;3.58;;;8.00;99.90;;;;;;4204119;28;20040;-46
2022/04/20 05:50:32;;;;;;;3.10;2.85;;;8.20;99.90;;;;;;4204325;28;20036;-48
2022/04/20 05:52:35;;;;;;;5.47;3.35;;;8.20;99.90;;;;;;4199081;28;20045;-49
2022/04/20 05:54:37;;;;;;;3.63;3.50;;;8.20;99.90;;;;;;4193949;28;20040;-48
2022/04/20 05:56:39;;;;;;;2.80;2.53;;;8.30;99.90;;;;;;4193680;28;20040;-49
2022/04/20 05:58:41;;;;;;;6.20;4.60;;;8.30;99.90;;;;;;4193062;28;20072;-48
2022/04/20 06:00:46;;;;;;;3.55;3.15;;;8.30;99.90;;;;;;4209165;28;20040;-46
2022/04/20 06:02:48;;;;;;;6.72;3.35;;;8.30;99.90;;;;;;4202811;28;20048;-48
2022/04/20 06:04:50;;;;;;;3.28;3.17;;;8.30;99.90;;;;;;4195922;28;20040;-48
2022/04/20 06:06:55;;;;;;;4.60;4.03;;;8.20;99.90;;;;;;4208585;28;20469;-48
2022/04/20 06:08:57;;;;;;;3.75;3.55;;;8.20;99.90;;;;;;4202157;28;20050;-51
2022/04/20 06:11:00;;;;;;;4.10;3.67;;;8.20;99.90;;;;;;4198884;28;20309;-48
2022/04/20 06:13:02;;;;;;;4.03;3.70;;;8.30;99.90;;;;;;4195605;28;20048;-49
2022/04/20 06:15:06;;;;;;;4.80;4.60;;;8.30;99.90;;;;;;4192967;28;20045;-46
2022/04/20 06:17:08;;;;;;;4.30;3.90;;;8.30;99.90;;;;;;4193956;28;20526;-50
2022/04/20 06:19:13;;;;;;;6.30;5.57;;;8.30;99.90;;;;;;4204262;28;20036;-50
2022/04/20 06:21:15;;;;;;;6.80;3.47;;;8.40;99.90;;;;;;4193462;28;20045;-47
2022/04/20 06:23:20;;;;;;;3.17;2.92;;;8.50;99.90;;;;;;4193768;28;20125;-47
2022/04/20 06:25:24;;;;;;;3.45;3.25;;;8.50;99.90;;;;;;4194830;28;20151;-46
2022/04/20 06:27:30;;;;;;;4.85;3.40;;;8.60;99.90;;;;;;4192007;28;20589;-47
2022/04/20 06:29:33;;;;;;;6.20;3.10;;;8.70;99.90;;;;;;4193103;28;20059;-46
2022/04/20 06:31:39;;;;;;;7.38;3.67;;;8.80;99.90;;;;;;4193371;28;20098;-48
2022/04/20 06:33:42;;;;;;;9.35;2.95;;;8.90;99.90;;;;;;4193449;28;20033;-49
2022/04/20 06:35:44;;;;;;;5.25;3.05;;;9.00;99.90;;;;;;4193064;28;20126;-46
2022/04/20 06:37:48;;;;;;;8.15;3.60;;;9.10;99.90;;;;;;4193313;28;20781;-46
2022/04/20 06:39:51;;;;;;;3.15;3.05;;;9.20;99.90;;;;;;4193081;28;20094;-45
2022/04/20 06:41:53;;;;;;;3.70;3.50;;;9.20;99.90;;;;;;4193424;28;20037;-45
2022/04/20 06:43:57;;;;;;;9.18;3.80;;;9.20;99.90;;;;;;4197440;28;20435;-45
2022/04/20 06:45:59;;;;;;;4.60;4.15;;;9.20;99.90;;;;;;4193299;28;20043;-48
2022/04/20 06:48:01;;;;;;;3.25;3.05;;;9.30;99.90;;;;;;4205289;28;20134;-48
2022/04/20 06:50:04;;;;;;;6.80;4.05;;;9.40;99.90;;;;;;4206180;28;20090;-47
2022/04/20 06:59:10;;;;;;;3.75;2.90;;;9.90;99.90;;;;;;4201477;28;20124;-45
2022/04/20 07:01:14;;;;;;;4.22;3.20;;;9.90;99.90;;;;;;4192881;28;20403;-48
2022/04/20 07:03:17;;;;;;;2.47;2.33;;;10.10;99.90;;;;;;4193683;28;20036;-45
2022/04/20 07:05:19;;;;;;;2.97;1.92;;;10.30;99.90;;;;;;4193276;28;20063;-47
2022/04/20 07:07:24;;;;;;;3.42;2.55;;;10.40;99.90;;;;;;4194628;28;20051;-47
2022/04/20 07:09:46;;;;;;;3.85;2.30;;;10.50;99.90;;;;;;4193332;28;20036;-50
2022/04/20 07:11:49;;;;;;;3.95;2.30;;;10.70;99.90;;;;;;4201753;28;20044;-49
2022/04/20 07:13:51;;;;;;;3.88;1.83;;;10.60;99.90;;;;;;4196414;28;20094;-50
2022/04/20 07:15:53;;;;;;;4.43;2.60;;;10.50;99.90;;;;;;4196619;28;20025;-46
2022/04/20 07:17:55;;;;;;;6.70;3.22;;;10.50;99.90;;;;;;4211406;28;20035;-46
2022/04/20 07:19:57;;;;;;;5.68;2.50;;;10.70;99.90;;;;;;4204196;28;20106;-48
2022/04/20 07:22:00;;;;;;;3.50;3.00;;;10.70;99.90;;;;;;4205989;28;20105;-47
2022/04/20 07:24:03;;;;;;;2.95;2.70;;;10.70;99.90;;;;;;4196263;28;20565;-48
2022/04/20 07:26:05;;;;;;;;;;;11.00;99.90;;;;;;4196803;28;20052;-48
2022/04/20 07:28:08;;;;;;;3.22;2.40;;;11.10;99.90;;;;;;4197043;28;19935;-47
2022/04/20 07:30:11;;;;;;;5.10;2.85;;;10.90;99.90;;;;;;4212862;28;20036;-45
2022/04/20 07:32:13;;;;;;;2.95;2.80;;;11.00;99.90;;;;;;4196637;28;20446;-45
2022/04/20 07:34:15;;;;;;;6.95;2.30;;;11.10;99.90;;;;;;4196447;28;20329;-46
2022/04/20 07:36:18;;;;;;;2.60;2.40;;;11.20;99.90;;;;;;4207651;28;20400;-47
2022/04/20 07:38:25;;;;;;;3.42;3.03;;;11.20;99.90;;;;;;4202761;28;20102;-46
2022/04/20 07:40:30;;;;;;;2.20;2.10;;;11.40;99.90;;;;;;4194659;28;20037;-45
2022/04/20 07:42:33;;;;;;;5.38;2.35;;;11.50;99.90;;;;;;4195896;28;20472;-44
2022/04/20 07:44:35;;;;;;;3.33;3.03;;;11.70;99.90;;;;;;4215835;28;20123;-43
2022/04/20 07:46:37;;;;;;;3.92;2.50;;;11.80;99.90;;;;;;4210407;28;20044;-45
2022/04/20 07:48:40;;;;;;;2.70;2.60;;;12.00;99.90;;;;;;4195940;28;20054;-44
2022/04/20 07:50:42;;;;;;;2.10;1.90;;;12.10;99.90;;;;;;4212123;28;20495;-44
2022/04/20 07:52:54;;;;;;;4.60;1.75;;;12.40;99.90;;;;;;4196005;28;20110;-44
2022/04/20 07:54:58;;;;;;;2.40;1.75;;;12.70;99.90;;;;;;4195578;28;20551;-44
2022/04/20 07:57:01;;;;;;;1.85;1.73;;;12.70;99.90;;;;;;4195658;28;20438;-44
2022/04/20 07:59:03;;;;;;;2.50;2.30;;;12.70;99.90;;;;;;4195576;28;20119;-45
2022/04/20 08:01:05;;;;;;;1.33;1.27;;;12.80;99.90;;;;;;4195401;28;20050;-44
2022/04/20 08:03:14;;;;;;;3.08;1.50;;;12.90;99.90;;;;;;4195801;28;20090;-44
2022/04/20 08:05:19;;;;;;;2.35;1.40;;;12.80;99.90;;;;;;4195698;28;20094;-45
2022/04/20 08:07:22;;;;;;;4.00;2.47;;;12.70;99.90;;;;;;4196471;28;20032;-44
2022/04/20 08:09:24;;;;;;;;;;;12.90;99.90;;;;;;4195025;28;20041;-46
2022/04/20 08:11:26;;;;;;;1.40;1.40;;;13.10;99.90;;;;;;4195314;28;20325;-44
2022/04/20 08:15:50;;;;;;;1.20;1.10;;;13.50;99.90;;;;;;4195866;28;20093;-45
2022/04/20 08:17:52;;;;;;;2.42;1.30;;;14.00;99.90;;;;;;4216993;28;20147;-46
2022/04/20 08:19:54;;;;;;;5.10;2.05;;;14.30;99.90;;;;;;4204129;28;20032;-44
2022/04/20 08:21:57;;;;;;;4.60;1.15;;;14.00;99.90;;;;;;4195221;28;20036;-45
2022/04/20 08:23:59;;;;;;;1.50;1.40;;;14.10;99.90;;;;;;4195727;28;20037;-47
2022/04/20 08:26:06;;;;;;;2.20;1.10;;;14.20;99.90;;;;;;4200214;28;20044;-46
2022/04/20 08:28:10;;;;;;;2.22;1.23;;;14.10;99.90;;;;;;4208059;28;20076;-45
2022/04/20 08:30:12;;;;;;;1.20;1.10;;;14.10;99.90;;;;;;4195398;28;20105;-44
2022/04/20 08:32:18;;;;;;;3.38;1.23;;;14.40;99.90;;;;;;4194982;28;20032;-44
2022/04/20 08:34:21;;;;;;;1.80;1.20;;;14.50;99.90;;;;;;4195283;28;20078;-46
2022/04/20 08:36:23;;;;;;;1.58;1.48;;;14.80;99.90;;;;;;4194822;28;20036;-49
2022/04/20 08:38:25;;;;;;;;;;;14.60;99.90;;;;;;4195727;28;20225;-45
2022/04/20 08:40:29;;;;;;;2.30;1.50;;;14.50;99.90;;;;;;4195441;28;20002;-47
2022/04/20 08:42:34;;;;;;;1.33;0.88;;;14.50;99.90;;;;;;4195437;28;20365;-48
2022/04/20 08:45:02;;;;;;;4.70;1.40;;;14.70;99.90;;;;;;4207705;28;20044;-48
2022/04/20 08:47:07;;;;;;;6.53;1.38;;;15.10;99.90;;;;;;4194845;28;20056;-48
2022/04/20 08:49:09;;;;;;;1.98;1.42;;;15.40;99.90;;;;;;4195347;28;20056;-44
2022/04/20 08:51:15;;;;;;;1.40;1.30;;;15.80;99.90;;;;;;4216264;28;20044;-45
2022/04/20 08:53:19;;;;;;;1.80;1.08;;;15.90;99.90;;;;;;4195002;28;20044;-46
2022/04/20 08:55:22;;;;;;;3.05;1.23;;;15.70;99.90;;;;;;4195149;28;20036;-45
2022/04/20 08:57:25;;;;;;;1.48;1.10;;;15.20;99.90;;;;;;4194725;28;20119;-45
2022/04/20 08:59:28;;;;;;;1.98;1.73;;;15.00;99.90;;;;;;4194670;28;20040;-46
2022/04/20 09:01:30;;;;;;;1.13;1.00;;;15.50;99.90;;;;;;4201693;28;20032;-45
2022/04/20 09:03:33;;;;;;;;;;;15.80;99.90;;;;;;4195155;28;20503;-47
2022/04/20 09:05:36;;;;;;;2.35;1.02;;;15.90;99.90;;;;;;4195087;28;19928;-45
2022/04/20 09:07:38;;;;;;;2.88;1.17;;;16.20;99.90;;;;;;4204214;28;20104;-45
2022/04/20 09:09:42;;;;;;;8.93;2.90;;;16.40;99.90;;;;;;4217551;28;20051;-45
2022/04/20 09:11:47;;;;;;;3.60;1.40;;;16.20;99.90;;;;;;4197761;28;20854;-48
2022/04/20 09:13:49;;;;;;;1.63;1.52;;;15.90;99.90;;;;;;4200973;28;20412;-46
2022/04/20 09:15:54;;;;;;;8.07;1.00;;;15.80;99.90;;;;;;4194298;28;20086;-47
2022/04/20 09:17:57;;;;;;;1.23;1.10;;;15.80;99.90;;;;;;4208321;28;20510;-45
2022/04/20 09:20:00;;;;;;;1.30;1.10;;;16.20;99.90;;;;;;4198084;28;20063;-45
2022/04/20 09:22:17;;;;;;;3.78;1.00;;;16.00;99.90;;;;;;4194579;28;20443;-44
2022/04/20 09:24:20;;;;;;;1.63;1.52;;;16.00;99.90;;;;;;4194404;28;20098;-45
2022/04/20 09:26:24;;;;;;;1.05;1.00;;;16.30;99.90;;;;;;4193784;28;20036;-45
2022/04/20 09:28:26;;;;;;;3.20;1.40;;;16.70;99.90;;;;;;4193729;28;20416;-45
2022/04/20 09:30:39;;;;;;;2.55;1.05;;;16.80;99.90;;;;;;4194142;28;20127;-45
2022/04/20 09:32:45;;;;;;;3.35;1.27;;;16.90;99.90;;;;;;4195492;28;20047;-44
2022/04/20 09:34:56;;;;;;;1.27;1.20;;;16.30;99.90;;;;;;4193933;28;20067;-44
2022/04/20 09:37:12;;;;;;;1.63;1.00;;;16.70;99.90;;;;;;4193077;28;20029;-46
2022/04/20 09:39:15;;;;;;;1.55;1.45;;;17.00;99.90;;;;;;4195150;28;20048;-45
2022/04/20 09:41:17;;;;;;;1.23;1.13;;;17.00;99.90;;;;;;4194159;28;20590;-46
2022/04/20 09:43:21;;;;;;;1.40;1.30;;;17.00;99.90;;;;;;4198987;28;20037;-45
2022/04/20 09:45:23;;;;;;;1.00;1.00;;;17.20;99.90;;;;;;4197513;28;20448;-44
2022/04/20 09:50:02;;;;;;;1.27;1.00;;;16.20;99.90;;;;;;4204025;28;20160;-46
2022/04/20 09:52:13;;;;;;;2.10;1.00;;;16.80;99.90;;;;;;4199504;28;20131;-44
2022/04/20 09:54:29;;;;;;;1.27;0.95;;;17.00;99.90;;;;;;4193709;28;20354;-45
2022/04/20 09:56:32;;;;;;;0.90;0.90;;;17.10;99.90;;;;;;4193773;28;20079;-43
2022/04/20 09:58:34;;;;;;;1.02;1.00;;;16.50;99.90;;;;;;4193437;28;20064;-44
2022/04/20 10:00:45;;;;;;;1.08;0.95;;;16.50;99.90;;;;;;4193734;28;20094;-45
2022/04/20 10:02:50;;;;;;;2.83;1.00;;;16.80;99.90;;;;;;4193568;28;20033;-44
2022/04/20 10:04:56;;;;;;;1.52;1.38;;;17.30;99.90;;;;;;4197887;28;20035;-44
2022/04/20 10:06:58;;;;;;;1.10;1.10;;;16.80;99.90;;;;;;4208468;28;20126;-45
2022/04/20 10:09:00;;;;;;;1.63;1.13;;;16.70;99.90;;;;;;4200711;28;20036;-47
2022/04/20 10:11:05;;;;;;;;;;;16.60;99.90;;;;;;4221345;28;20408;-45
2022/04/20 10:13:07;;;;;;;2.45;1.10;;;16.90;99.90;;;;;;4193431;28;19974;-45
2022/04/20 10:17:34;;;;;;;1.13;1.00;;;16.90;99.90;;;;;;4200906;28;20035;-45
2022/04/20 10:19:39;;;;;;;2.65;1.40;;;16.30;99.90;;;;;;4200395;28;20459;-46
2022/04/20 10:21:50;;;;;;;1.65;1.30;;;16.60;99.90;;;;;;4193445;28;20042;-46
2022/04/20 10:23:59;;;;;;;1.20;1.00;;;16.60;99.90;;;;;;4193205;28;20115;-46
2022/04/20 10:26:06;;;;;;;1.55;1.20;;;16.30;99.90;;;;;;4193169;28;20047;-44
2022/04/20 10:28:17;;;;;;;1.35;1.00;;;16.30;99.90;;;;;;4193399;28;20054;-46
2022/04/20 10:30:43;;;;;;;15.27;5.35;;;16.20;99.90;;;;;;4193331;28;20035;-44
2022/04/20 10:33:23;;;;;;;1.52;1.00;;;16.20;99.90;;;;;;4193630;28;20040;-45
2022/04/20 10:35:26;;;;;;;6.78;2.15;;;16.10;99.90;;;;;;4193141;28;20167;-45
2022/04/20 10:37:30;;;;;;;1.40;1.30;;;16.50;99.90;;;;;;4193328;28;20094;-47
2022/04/20 10:39:39;;;;;;;2.83;1.00;;;16.30;99.90;;;;;;4193144;28;20040;-44
2022/04/20 10:41:44;;;;;;;2.10;1.80;;;15.80;99.90;;;;;;4193437;28;20488;-44
2022/04/20 10:44:04;;;;;;;1.40;1.20;;;15.90;99.90;;;;;;4198710;28;20036;-44
2022/04/20 10:46:17;;;;;;;1.60;1.00;;;16.00;99.90;;;;;;4197806;28;20035;-46
2022/04/20 10:48:20;;;;;;;19.65;6.60;;;16.00;99.90;;;;;;4211612;28;20089;-46
2022/04/20 10:50:28;;;;;;;10.65;1.60;;;15.70;99.90;;;;;;4211641;28;20036;-46
2022/04/20 10:52:36;;;;;;;3.38;1.10;;;16.10;99.90;;;;;;4196728;28;20132;-45
2022/04/20 10:54:52;;;;;;;;;;;16.40;99.90;;;;;;4197283;28;20462;-45
2022/04/20 10:57:01;;;;;;;1.42;0.98;;;16.70;99.90;;;;;;4196464;28;20176;-44
2022/04/20 10:59:09;;;;;;;3.78;1.15;;;17.00;99.90;;;;;;4196530;28;20119;-44
2022/04/20 11:01:12;;;;;;;18.33;1.95;;;17.10;99.90;;;;;;4196866;28;20040;-46
2022/04/20 11:03:15;;;;;;;1.02;1.02;;;17.40;99.90;;;;;;4196151;28;20072;-44
2022/04/20 11:05:24;;;;;;;0.95;0.95;;;17.50;99.90;;;;;;4196746;28;20629;-44
2022/04/20 11:07:30;;;;;;;1.50;1.00;;;18.10;99.90;;;;;;4203047;28;20545;-44
2022/04/20 11:09:45;;;;;;;0.93;0.93;;;17.60;99.90;;;;;;4205797;28;20082;-47
2022/04/20 11:19:33;;;;;;;1.63;1.00;;;16.90;99.90;;;;;;4195950;28;20097;-45
2022/04/20 11:21:36;;;;;;;1.23;1.20;;;16.60;99.90;;;;;;4196210;28;20496;-46
2022/04/20 11:23:58;;;;;;;1.45;1.05;;;16.30;99.90;;;;;;4195881;28;20394;-46
2022/04/20 11:26:00;;;;;;;1.25;1.15;;;16.50;99.90;;;;;;4195962;28;20099;-48
2022/04/20 11:28:03;;;;;;;1.00;1.00;;;16.60;99.90;;;;;;4203127;28;20051;-46